sensor_id;sensor_type;location;lat;lon;timestamp;P1;durP1;ratioP1;P2;durP2;ratioP2
20729;SDS011;10526;50.850;12.928;2023-01-28T00:00:24;41.25;;;22.42;;
20729;SDS011;10526;50.850;12.928;2023-01-28T00:04:47;40.95;;;21.63;;
20729;SDS011;10526;50.850;12.928;2023-01-28T00:09:09;41.90;;;21.60;;
20729;SDS011;10526;50.850;12.928;2023-01-28T00:13:32;49.60;;;21.50;;
20729;SDS011;10526;50.850;12.928;2023-01-28T00:17:54;47.83;;;23.33;;
20729;SDS011;10526;50.850;12.928;2023-01-28T00:22:17;45.50;;;22.52;;
20729;SDS011;10526;50.850;12.928;2023-01-28T00:26:39;37.08;;;18.92;;
20729;SDS011;10526;50.850;12.928;2023-01-28T00:31:09;35.05;;;18.25;;
20729;SDS011;10526;50.850;12.928;2023-01-28T00:35:42;33.60;;;17.17;;
20729;SDS011;10526;50.850;12.928;2023-01-28T00:40:05;26.67;;;15.25;;
20729;SDS011;10526;50.850;12.928;2023-01-28T00:44:30;30.98;;;15.43;;
20729;SDS011;10526;50.850;12.928;2023-01-28T00:48:56;25.92;;;14.95;;
20729;SDS011;10526;50.850;12.928;2023-01-28T00:53:18;28.55;;;15.98;;
20729;SDS011;10526;50.850;12.928;2023-01-28T00:57:40;25.70;;;15.60;;
20729;SDS011;10526;50.850;12.928;2023-01-28T01:02:02;30.08;;;16.90;;
20729;SDS011;10526;50.850;12.928;2023-01-28T01:06:37;31.13;;;16.90;;
20729;SDS011;10526;50.850;12.928;2023-01-28T01:11:01;29.17;;;16.40;;
20729;SDS011;10526;50.850;12.928;2023-01-28T01:15:25;32.50;;;19.55;;
20729;SDS011;10526;50.850;12.928;2023-01-28T01:19:47;33.05;;;18.30;;
20729;SDS011;10526;50.850;12.928;2023-01-28T01:24:09;31.50;;;17.55;;
20729;SDS011;10526;50.850;12.928;2023-01-28T01:28:32;28.83;;;15.93;;
20729;SDS011;10526;50.850;12.928;2023-01-28T01:32:54;30.23;;;16.88;;
20729;SDS011;10526;50.850;12.928;2023-01-28T01:37:18;26.65;;;15.05;;
20729;SDS011;10526;50.850;12.928;2023-01-28T01:41:39;29.63;;;15.50;;
20729;SDS011;10526;50.850;12.928;2023-01-28T01:46:02;31.17;;;16.25;;
20729;SDS011;10526;50.850;12.928;2023-01-28T01:50:28;28.83;;;15.35;;
20729;SDS011;10526;50.850;12.928;2023-01-28T01:55:05;36.22;;;16.25;;
20729;SDS011;10526;50.850;12.928;2023-01-28T01:59:34;30.00;;;15.10;;
20729;SDS011;10526;50.850;12.928;2023-01-28T02:13:48;29.63;;;14.90;;
20729;SDS011;10526;50.850;12.928;2023-01-28T02:18:16;29.17;;;14.95;;
20729;SDS011;10526;50.850;12.928;2023-01-28T02:27:23;30.92;;;16.13;;
20729;SDS011;10526;50.850;12.928;2023-01-28T02:32:16;30.42;;;15.85;;
20729;SDS011;10526;50.850;12.928;2023-01-28T02:36:58;31.58;;;16.95;;
20729;SDS011;10526;50.850;12.928;2023-01-28T02:41:27;27.65;;;16.52;;
20729;SDS011;10526;50.850;12.928;2023-01-28T02:45:54;29.08;;;16.70;;
20729;SDS011;10526;50.850;12.928;2023-01-28T02:50:38;27.15;;;16.38;;
20729;SDS011;10526;50.850;12.928;2023-01-28T02:55:14;27.70;;;15.02;;
20729;SDS011;10526;50.850;12.928;2023-01-28T03:00:17;29.92;;;14.55;;
20729;SDS011;10526;50.850;12.928;2023-01-28T03:09:42;28.95;;;16.48;;
20729;SDS011;10526;50.850;12.928;2023-01-28T03:14:08;29.17;;;15.50;;
20729;SDS011;10526;50.850;12.928;2023-01-28T03:18:50;26.55;;;15.85;;
20729;SDS011;10526;50.850;12.928;2023-01-28T03:24:34;32.25;;;17.23;;
20729;SDS011;10526;50.850;12.928;2023-01-28T03:29:01;29.33;;;17.05;;
20729;SDS011;10526;50.850;12.928;2023-01-28T03:33:50;28.67;;;15.93;;
20729;SDS011;10526;50.850;12.928;2023-01-28T03:38:32;30.80;;;17.95;;
20729;SDS011;10526;50.850;12.928;2023-01-28T03:43:04;33.03;;;16.60;;
20729;SDS011;10526;50.850;12.928;2023-01-28T03:47:28;29.10;;;14.70;;
20729;SDS011;10526;50.850;12.928;2023-01-28T03:51:54;23.27;;;13.60;;
20729;SDS011;10526;50.850;12.928;2023-01-28T03:56:17;24.80;;;13.23;;
20729;SDS011;10526;50.850;12.928;2023-01-28T04:00:46;20.83;;;12.43;;
20729;SDS011;10526;50.850;12.928;2023-01-28T04:05:09;21.73;;;13.25;;
20729;SDS011;10526;50.850;12.928;2023-01-28T04:09:40;23.00;;;12.20;;
20729;SDS011;10526;50.850;12.928;2023-01-28T04:14:35;18.70;;;10.18;;
20729;SDS011;10526;50.850;12.928;2023-01-28T04:19:01;20.23;;;9.73;;
20729;SDS011;10526;50.850;12.928;2023-01-28T04:23:25;18.33;;;9.68;;
20729;SDS011;10526;50.850;12.928;2023-01-28T04:27:50;22.15;;;9.68;;
20729;SDS011;10526;50.850;12.928;2023-01-28T04:32:14;15.75;;;8.80;;
20729;SDS011;10526;50.850;12.928;2023-01-28T04:36:55;18.88;;;8.85;;
20729;SDS011;10526;50.850;12.928;2023-01-28T04:41:37;18.70;;;8.98;;
20729;SDS011;10526;50.850;12.928;2023-01-28T04:46:07;18.27;;;7.93;;
20729;SDS011;10526;50.850;12.928;2023-01-28T04:50:36;16.67;;;8.15;;
20729;SDS011;10526;50.850;12.928;2023-01-28T04:55:12;15.73;;;7.22;;
20729;SDS011;10526;50.850;12.928;2023-01-28T04:59:35;19.77;;;8.82;;
20729;SDS011;10526;50.850;12.928;2023-01-28T05:03:58;15.35;;;8.02;;
20729;SDS011;10526;50.850;12.928;2023-01-28T05:08:28;18.17;;;7.57;;
20729;SDS011;10526;50.850;12.928;2023-01-28T05:12:50;13.45;;;6.28;;
20729;SDS011;10526;50.850;12.928;2023-01-28T05:17:13;17.02;;;6.10;;
20729;SDS011;10526;50.850;12.928;2023-01-28T05:21:35;15.07;;;6.80;;
20729;SDS011;10526;50.850;12.928;2023-01-28T05:26:01;12.02;;;6.07;;
20729;SDS011;10526;50.850;12.928;2023-01-28T05:30:24;16.63;;;7.45;;
20729;SDS011;10526;50.850;12.928;2023-01-28T05:34:46;15.48;;;6.75;;
20729;SDS011;10526;50.850;12.928;2023-01-28T05:39:08;17.38;;;6.20;;
20729;SDS011;10526;50.850;12.928;2023-01-28T05:43:31;17.73;;;6.93;;
20729;SDS011;10526;50.850;12.928;2023-01-28T05:48:13;14.35;;;6.22;;
20729;SDS011;10526;50.850;12.928;2023-01-28T05:53:09;16.70;;;6.28;;
20729;SDS011;10526;50.850;12.928;2023-01-28T05:57:34;11.27;;;5.38;;
20729;SDS011;10526;50.850;12.928;2023-01-28T06:01:57;14.25;;;5.72;;
20729;SDS011;10526;50.850;12.928;2023-01-28T06:06:19;14.38;;;5.90;;
20729;SDS011;10526;50.850;12.928;2023-01-28T06:10:42;12.35;;;6.03;;
20729;SDS011;10526;50.850;12.928;2023-01-28T06:15:04;15.32;;;6.45;;
20729;SDS011;10526;50.850;12.928;2023-01-28T06:19:50;14.70;;;7.22;;
20729;SDS011;10526;50.850;12.928;2023-01-28T06:24:12;16.50;;;7.05;;
20729;SDS011;10526;50.850;12.928;2023-01-28T06:28:34;20.92;;;8.05;;
20729;SDS011;10526;50.850;12.928;2023-01-28T06:32:56;14.82;;;7.50;;
20729;SDS011;10526;50.850;12.928;2023-01-28T06:37:19;15.80;;;6.95;;
20729;SDS011;10526;50.850;12.928;2023-01-28T06:41:41;16.23;;;6.80;;
20729;SDS011;10526;50.850;12.928;2023-01-28T06:46:03;17.98;;;6.90;;
20729;SDS011;10526;50.850;12.928;2023-01-28T06:50:26;15.30;;;6.88;;
20729;SDS011;10526;50.850;12.928;2023-01-28T06:54:49;15.82;;;6.85;;
20729;SDS011;10526;50.850;12.928;2023-01-28T06:59:11;15.73;;;6.10;;
20729;SDS011;10526;50.850;12.928;2023-01-28T07:03:33;15.93;;;6.75;;
20729;SDS011;10526;50.850;12.928;2023-01-28T07:07:57;14.95;;;6.22;;
20729;SDS011;10526;50.850;12.928;2023-01-28T07:12:19;15.55;;;6.47;;
20729;SDS011;10526;50.850;12.928;2023-01-28T07:16:41;16.30;;;6.57;;
20729;SDS011;10526;50.850;12.928;2023-01-28T07:21:03;16.35;;;6.47;;
20729;SDS011;10526;50.850;12.928;2023-01-28T07:25:26;13.25;;;6.68;;
20729;SDS011;10526;50.850;12.928;2023-01-28T07:29:48;12.88;;;6.57;;
20729;SDS011;10526;50.850;12.928;2023-01-28T07:34:10;15.02;;;7.07;;
20729;SDS011;10526;50.850;12.928;2023-01-28T07:38:32;14.55;;;7.47;;
20729;SDS011;10526;50.850;12.928;2023-01-28T07:42:54;15.63;;;6.90;;
20729;SDS011;10526;50.850;12.928;2023-01-28T07:47:16;12.93;;;6.78;;
20729;SDS011;10526;50.850;12.928;2023-01-28T07:51:39;11.82;;;6.47;;
20729;SDS011;10526;50.850;12.928;2023-01-28T07:56:02;15.88;;;6.47;;
20729;SDS011;10526;50.850;12.928;2023-01-28T08:00:26;14.98;;;5.88;;
20729;SDS011;10526;50.850;12.928;2023-01-28T08:04:51;12.40;;;5.20;;
20729;SDS011;10526;50.850;12.928;2023-01-28T08:09:13;13.40;;;5.20;;
20729;SDS011;10526;50.850;12.928;2023-01-28T08:13:36;10.63;;;4.10;;
20729;SDS011;10526;50.850;12.928;2023-01-28T08:17:58;9.15;;;3.78;;
20729;SDS011;10526;50.850;12.928;2023-01-28T08:22:25;6.00;;;2.90;;
20729;SDS011;10526;50.850;12.928;2023-01-28T08:26:48;8.65;;;3.45;;
20729;SDS011;10526;50.850;12.928;2023-01-28T08:31:09;23.52;;;10.93;;
20729;SDS011;10526;50.850;12.928;2023-01-28T08:35:32;9.55;;;3.97;;
20729;SDS011;10526;50.850;12.928;2023-01-28T08:39:55;10.60;;;4.30;;
20729;SDS011;10526;50.850;12.928;2023-01-28T08:44:17;14.10;;;4.70;;
20729;SDS011;10526;50.850;12.928;2023-01-28T08:48:39;10.32;;;4.55;;
20729;SDS011;10526;50.850;12.928;2023-01-28T08:53:04;9.43;;;4.72;;
20729;SDS011;10526;50.850;12.928;2023-01-28T08:57:38;13.15;;;5.50;;
20729;SDS011;10526;50.850;12.928;2023-01-28T09:02:00;11.00;;;4.30;;
20729;SDS011;10526;50.850;12.928;2023-01-28T09:06:22;12.15;;;4.20;;
20729;SDS011;10526;50.850;12.928;2023-01-28T09:10:44;12.60;;;4.57;;
20729;SDS011;10526;50.850;12.928;2023-01-28T09:15:06;12.57;;;4.10;;
20729;SDS011;10526;50.850;12.928;2023-01-28T09:19:30;10.57;;;3.90;;
20729;SDS011;10526;50.850;12.928;2023-01-28T09:23:51;10.70;;;4.10;;
20729;SDS011;10526;50.850;12.928;2023-01-28T09:28:16;9.65;;;4.20;;
20729;SDS011;10526;50.850;12.928;2023-01-28T09:32:38;9.57;;;4.22;;
20729;SDS011;10526;50.850;12.928;2023-01-28T09:37:00;14.27;;;4.20;;
20729;SDS011;10526;50.850;12.928;2023-01-28T09:41:27;9.05;;;3.75;;
20729;SDS011;10526;50.850;12.928;2023-01-28T09:46:07;11.05;;;4.63;;
20729;SDS011;10526;50.850;12.928;2023-01-28T09:55:03;9.45;;;3.60;;
20729;SDS011;10526;50.850;12.928;2023-01-28T09:59:36;8.18;;;3.25;;
20729;SDS011;10526;50.850;12.928;2023-01-28T10:28:46;7.95;;;3.22;;
20729;SDS011;10526;50.850;12.928;2023-01-28T10:33:36;9.63;;;3.78;;
20729;SDS011;10526;50.850;12.928;2023-01-28T10:38:01;5.68;;;2.47;;
20729;SDS011;10526;50.850;12.928;2023-01-28T10:42:29;10.27;;;3.13;;
20729;SDS011;10526;50.850;12.928;2023-01-28T10:46:58;8.07;;;3.10;;
20729;SDS011;10526;50.850;12.928;2023-01-28T10:51:40;4.93;;;2.47;;
20729;SDS011;10526;50.850;12.928;2023-01-28T10:56:08;9.07;;;3.35;;
20729;SDS011;10526;50.850;12.928;2023-01-28T11:00:36;9.77;;;3.10;;
20729;SDS011;10526;50.850;12.928;2023-01-28T11:05:06;9.35;;;3.28;;
20729;SDS011;10526;50.850;12.928;2023-01-28T11:09:46;8.05;;;2.90;;
20729;SDS011;10526;50.850;12.928;2023-01-28T11:14:18;11.18;;;4.05;;
20729;SDS011;10526;50.850;12.928;2023-01-28T11:18:52;7.85;;;3.28;;
20729;SDS011;10526;50.850;12.928;2023-01-28T11:23:22;9.60;;;4.03;;
20729;SDS011;10526;50.850;12.928;2023-01-28T11:27:54;8.05;;;3.30;;
20729;SDS011;10526;50.850;12.928;2023-01-28T11:32:18;11.52;;;3.58;;
20729;SDS011;10526;50.850;12.928;2023-01-28T11:36:52;10.27;;;3.70;;
20729;SDS011;10526;50.850;12.928;2023-01-28T11:41:35;12.32;;;4.10;;
20729;SDS011;10526;50.850;12.928;2023-01-28T12:04:58;10.57;;;4.13;;
20729;SDS011;10526;50.850;12.928;2023-01-28T12:19:43;10.02;;;3.95;;
20729;SDS011;10526;50.850;12.928;2023-01-28T12:29:33;17.55;;;6.25;;
20729;SDS011;10526;50.850;12.928;2023-01-28T12:44:16;14.43;;;4.18;;
20729;SDS011;10526;50.850;12.928;2023-01-28T12:48:48;9.68;;;3.88;;
20729;SDS011;10526;50.850;12.928;2023-01-28T12:53:48;9.48;;;3.85;;
20729;SDS011;10526;50.850;12.928;2023-01-28T12:58:18;10.48;;;3.70;;
20729;SDS011;10526;50.850;12.928;2023-01-28T13:08:02;12.30;;;4.63;;
20729;SDS011;10526;50.850;12.928;2023-01-28T13:12:33;11.63;;;3.40;;
20729;SDS011;10526;50.850;12.928;2023-01-28T13:22:08;11.40;;;3.42;;
20729;SDS011;10526;50.850;12.928;2023-01-28T13:26:52;13.63;;;3.88;;
20729;SDS011;10526;50.850;12.928;2023-01-28T13:31:17;9.45;;;3.75;;
20729;SDS011;10526;50.850;12.928;2023-01-28T13:35:49;10.00;;;4.13;;
20729;SDS011;10526;50.850;12.928;2023-01-28T13:40:26;10.88;;;3.92;;
20729;SDS011;10526;50.850;12.928;2023-01-28T13:44:49;9.73;;;3.90;;
20729;SDS011;10526;50.850;12.928;2023-01-28T13:49:13;8.95;;;4.10;;
20729;SDS011;10526;50.850;12.928;2023-01-28T13:53:46;10.40;;;4.53;;
20729;SDS011;10526;50.850;12.928;2023-01-28T14:12:51;11.13;;;4.75;;
20729;SDS011;10526;50.850;12.928;2023-01-28T14:22:20;10.82;;;4.30;;
20729;SDS011;10526;50.850;12.928;2023-01-28T14:26:52;11.00;;;5.10;;
20729;SDS011;10526;50.850;12.928;2023-01-28T14:31:32;13.05;;;5.43;;
20729;SDS011;10526;50.850;12.928;2023-01-28T14:35:59;13.77;;;5.30;;
20729;SDS011;10526;50.850;12.928;2023-01-28T14:40:21;9.95;;;5.30;;
20729;SDS011;10526;50.850;12.928;2023-01-28T14:44:44;12.40;;;5.32;;
20729;SDS011;10526;50.850;12.928;2023-01-28T14:59:03;16.50;;;7.47;;
20729;SDS011;10526;50.850;12.928;2023-01-28T15:03:54;20.98;;;8.52;;
20729;SDS011;10526;50.850;12.928;2023-01-28T15:08:20;17.88;;;7.80;;
20729;SDS011;10526;50.850;12.928;2023-01-28T15:12:45;14.85;;;6.88;;
20729;SDS011;10526;50.850;12.928;2023-01-28T15:17:19;18.17;;;8.15;;
20729;SDS011;10526;50.850;12.928;2023-01-28T15:21:47;15.82;;;7.95;;
20729;SDS011;10526;50.850;12.928;2023-01-28T15:26:13;14.50;;;7.20;;
20729;SDS011;10526;50.850;12.928;2023-01-28T15:30:43;14.82;;;6.72;;
20729;SDS011;10526;50.850;12.928;2023-01-28T15:35:09;14.10;;;6.47;;
20729;SDS011;10526;50.850;12.928;2023-01-28T15:39:34;14.35;;;7.15;;
20729;SDS011;10526;50.850;12.928;2023-01-28T15:43:56;16.75;;;7.90;;
20729;SDS011;10526;50.850;12.928;2023-01-28T15:48:19;17.70;;;8.40;;
20729;SDS011;10526;50.850;12.928;2023-01-28T15:52:42;15.77;;;8.85;;
20729;SDS011;10526;50.850;12.928;2023-01-28T15:57:26;16.30;;;7.78;;
20729;SDS011;10526;50.850;12.928;2023-01-28T16:06:43;15.80;;;8.07;;
20729;SDS011;10526;50.850;12.928;2023-01-28T16:11:07;17.77;;;8.55;;
20729;SDS011;10526;50.850;12.928;2023-01-28T16:15:33;16.05;;;7.47;;
20729;SDS011;10526;50.850;12.928;2023-01-28T16:24:56;16.10;;;8.88;;
20729;SDS011;10526;50.850;12.928;2023-01-28T16:29:39;16.83;;;8.02;;
20729;SDS011;10526;50.850;12.928;2023-01-28T16:34:48;18.83;;;9.07;;
20729;SDS011;10526;50.850;12.928;2023-01-28T16:40:31;15.75;;;8.57;;
20729;SDS011;10526;50.850;12.928;2023-01-28T16:46:10;17.00;;;7.28;;
20729;SDS011;10526;50.850;12.928;2023-01-28T16:50:33;14.27;;;5.72;;
20729;SDS011;10526;50.850;12.928;2023-01-28T16:54:58;13.40;;;6.05;;
20729;SDS011;10526;50.850;12.928;2023-01-28T16:59:20;13.13;;;4.55;;
20729;SDS011;10526;50.850;12.928;2023-01-28T17:03:43;13.27;;;5.82;;
20729;SDS011;10526;50.850;12.928;2023-01-28T17:08:05;12.93;;;6.10;;
20729;SDS011;10526;50.850;12.928;2023-01-28T17:12:27;13.27;;;6.55;;
20729;SDS011;10526;50.850;12.928;2023-01-28T17:16:49;15.38;;;6.30;;
20729;SDS011;10526;50.850;12.928;2023-01-28T17:21:26;15.50;;;7.07;;
20729;SDS011;10526;50.850;12.928;2023-01-28T17:25:49;15.02;;;6.38;;
20729;SDS011;10526;50.850;12.928;2023-01-28T17:30:11;14.82;;;6.88;;
20729;SDS011;10526;50.850;12.928;2023-01-28T17:34:34;15.57;;;6.93;;
20729;SDS011;10526;50.850;12.928;2023-01-28T17:38:56;14.43;;;7.05;;
20729;SDS011;10526;50.850;12.928;2023-01-28T17:43:18;18.02;;;9.65;;
20729;SDS011;10526;50.850;12.928;2023-01-28T17:47:40;16.17;;;9.45;;
20729;SDS011;10526;50.850;12.928;2023-01-28T17:52:03;18.13;;;9.48;;
20729;SDS011;10526;50.850;12.928;2023-01-28T17:56:26;17.25;;;8.80;;
20729;SDS011;10526;50.850;12.928;2023-01-28T18:00:49;18.25;;;8.18;;
20729;SDS011;10526;50.850;12.928;2023-01-28T18:05:11;14.93;;;7.40;;
20729;SDS011;10526;50.850;12.928;2023-01-28T18:09:38;14.32;;;7.15;;
20729;SDS011;10526;50.850;12.928;2023-01-28T18:14:02;12.63;;;6.22;;
20729;SDS011;10526;50.850;12.928;2023-01-28T18:18:25;13.82;;;6.22;;
20729;SDS011;10526;50.850;12.928;2023-01-28T18:22:47;17.27;;;7.35;;
20729;SDS011;10526;50.850;12.928;2023-01-28T18:27:09;12.05;;;6.75;;
20729;SDS011;10526;50.850;12.928;2023-01-28T18:31:31;16.05;;;7.50;;
20729;SDS011;10526;50.850;12.928;2023-01-28T18:35:54;15.13;;;7.13;;
20729;SDS011;10526;50.850;12.928;2023-01-28T18:40:16;17.13;;;7.63;;
20729;SDS011;10526;50.850;12.928;2023-01-28T18:44:38;13.45;;;6.20;;
20729;SDS011;10526;50.850;12.928;2023-01-28T18:49:00;14.60;;;6.68;;
20729;SDS011;10526;50.850;12.928;2023-01-28T18:53:23;15.90;;;7.97;;
20729;SDS011;10526;50.850;12.928;2023-01-28T18:57:46;16.27;;;8.75;;
20729;SDS011;10526;50.850;12.928;2023-01-28T19:02:09;20.35;;;10.23;;
20729;SDS011;10526;50.850;12.928;2023-01-28T19:06:34;16.30;;;7.70;;
20729;SDS011;10526;50.850;12.928;2023-01-28T19:10:57;16.85;;;8.82;;
20729;SDS011;10526;50.850;12.928;2023-01-28T19:15:19;18.05;;;9.40;;
20729;SDS011;10526;50.850;12.928;2023-01-28T19:19:41;17.17;;;9.48;;
20729;SDS011;10526;50.850;12.928;2023-01-28T19:24:04;18.33;;;8.82;;
20729;SDS011;10526;50.850;12.928;2023-01-28T19:28:30;15.75;;;8.15;;
20729;SDS011;10526;50.850;12.928;2023-01-28T19:32:54;14.98;;;8.00;;
20729;SDS011;10526;50.850;12.928;2023-01-28T19:37:16;13.93;;;7.22;;
20729;SDS011;10526;50.850;12.928;2023-01-28T19:41:38;15.75;;;8.40;;
20729;SDS011;10526;50.850;12.928;2023-01-28T19:46:02;14.05;;;7.07;;
20729;SDS011;10526;50.850;12.928;2023-01-28T19:50:26;17.92;;;9.15;;
20729;SDS011;10526;50.850;12.928;2023-01-28T19:54:48;14.13;;;7.15;;
20729;SDS011;10526;50.850;12.928;2023-01-28T19:59:10;18.30;;;7.95;;
20729;SDS011;10526;50.850;12.928;2023-01-28T20:03:35;15.93;;;9.02;;
20729;SDS011;10526;50.850;12.928;2023-01-28T20:07:58;14.40;;;7.50;;
20729;SDS011;10526;50.850;12.928;2023-01-28T20:12:20;19.02;;;9.20;;
20729;SDS011;10526;50.850;12.928;2023-01-28T20:16:42;17.45;;;9.27;;
20729;SDS011;10526;50.850;12.928;2023-01-28T20:21:04;16.40;;;7.97;;
20729;SDS011;10526;50.850;12.928;2023-01-28T20:25:27;17.75;;;8.18;;
20729;SDS011;10526;50.850;12.928;2023-01-28T20:29:49;19.77;;;9.07;;
20729;SDS011;10526;50.850;12.928;2023-01-28T20:34:12;16.15;;;8.27;;
20729;SDS011;10526;50.850;12.928;2023-01-28T20:38:41;16.90;;;8.25;;
20729;SDS011;10526;50.850;12.928;2023-01-28T20:43:07;19.98;;;9.65;;
20729;SDS011;10526;50.850;12.928;2023-01-28T20:47:29;20.20;;;10.27;;
20729;SDS011;10526;50.850;12.928;2023-01-28T20:51:52;17.90;;;9.20;;
20729;SDS011;10526;50.850;12.928;2023-01-28T20:56:15;17.00;;;9.05;;
20729;SDS011;10526;50.850;12.928;2023-01-28T21:00:40;19.17;;;9.38;;
20729;SDS011;10526;50.850;12.928;2023-01-28T21:05:02;16.45;;;9.02;;
20729;SDS011;10526;50.850;12.928;2023-01-28T21:09:25;17.60;;;10.32;;
20729;SDS011;10526;50.850;12.928;2023-01-28T21:13:48;22.65;;;10.45;;
20729;SDS011;10526;50.850;12.928;2023-01-28T21:18:10;18.35;;;9.88;;
20729;SDS011;10526;50.850;12.928;2023-01-28T21:22:33;20.80;;;10.35;;
20729;SDS011;10526;50.850;12.928;2023-01-28T21:26:55;19.55;;;10.05;;
20729;SDS011;10526;50.850;12.928;2023-01-28T21:31:18;19.13;;;10.45;;
20729;SDS011;10526;50.850;12.928;2023-01-28T21:35:43;22.73;;;11.70;;
20729;SDS011;10526;50.850;12.928;2023-01-28T21:40:05;19.33;;;10.60;;
20729;SDS011;10526;50.850;12.928;2023-01-28T21:44:28;19.13;;;10.20;;
20729;SDS011;10526;50.850;12.928;2023-01-28T21:48:57;20.00;;;10.50;;
20729;SDS011;10526;50.850;12.928;2023-01-28T21:53:21;18.63;;;10.45;;
20729;SDS011;10526;50.850;12.928;2023-01-28T21:57:44;17.55;;;9.52;;
20729;SDS011;10526;50.850;12.928;2023-01-28T22:02:10;18.85;;;10.45;;
20729;SDS011;10526;50.850;12.928;2023-01-28T22:06:34;18.08;;;10.13;;
20729;SDS011;10526;50.850;12.928;2023-01-28T22:11:00;19.42;;;10.70;;
20729;SDS011;10526;50.850;12.928;2023-01-28T22:15:24;20.52;;;10.70;;
20729;SDS011;10526;50.850;12.928;2023-01-28T22:19:46;24.48;;;12.00;;
20729;SDS011;10526;50.850;12.928;2023-01-28T22:28:36;17.85;;;9.23;;
20729;SDS011;10526;50.850;12.928;2023-01-28T22:32:58;17.05;;;8.80;;
20729;SDS011;10526;50.850;12.928;2023-01-28T22:37:20;21.52;;;9.45;;
20729;SDS011;10526;50.850;12.928;2023-01-28T22:41:42;18.55;;;9.60;;
20729;SDS011;10526;50.850;12.928;2023-01-28T22:46:05;16.63;;;8.50;;
20729;SDS011;10526;50.850;12.928;2023-01-28T22:50:28;17.08;;;8.75;;
20729;SDS011;10526;50.850;12.928;2023-01-28T22:54:50;19.23;;;8.10;;
20729;SDS011;10526;50.850;12.928;2023-01-28T22:59:12;19.02;;;8.38;;
20729;SDS011;10526;50.850;12.928;2023-01-28T23:03:34;15.55;;;7.40;;
20729;SDS011;10526;50.850;12.928;2023-01-28T23:07:56;15.20;;;8.38;;
20729;SDS011;10526;50.850;12.928;2023-01-28T23:12:30;18.38;;;8.68;;
20729;SDS011;10526;50.850;12.928;2023-01-28T23:16:52;16.73;;;8.77;;
20729;SDS011;10526;50.850;12.928;2023-01-28T23:21:34;17.23;;;9.00;;
20729;SDS011;10526;50.850;12.928;2023-01-28T23:26:15;17.52;;;9.68;;
20729;SDS011;10526;50.850;12.928;2023-01-28T23:30:38;19.23;;;10.88;;
20729;SDS011;10526;50.850;12.928;2023-01-28T23:35:00;17.73;;;9.27;;
20729;SDS011;10526;50.850;12.928;2023-01-28T23:39:22;18.45;;;9.18;;
20729;SDS011;10526;50.850;12.928;2023-01-28T23:43:44;16.30;;;9.13;;
20729;SDS011;10526;50.850;12.928;2023-01-28T23:48:07;15.60;;;8.77;;
20729;SDS011;10526;50.850;12.928;2023-01-28T23:52:29;17.25;;;9.48;;
20729;SDS011;10526;50.850;12.928;2023-01-28T23:56:51;18.10;;;9.65;;
